sensor_id;sensor_type;location;lat;lon;timestamp;P1;durP1;ratioP1;P2;durP2;ratioP2
67768;SDS011;54569;52.018;5.584;2023-12-28T00:00:46;3.85;;;2.35;;
67768;SDS011;54569;52.018;5.584;2023-12-28T00:03:13;3.97;;;2.22;;
67768;SDS011;54569;52.018;5.584;2023-12-28T00:05:39;2.35;;;2.15;;
67768;SDS011;54569;52.018;5.584;2023-12-28T00:08:04;2.65;;;2.10;;
67768;SDS011;54569;52.018;5.584;2023-12-28T00:10:30;2.40;;;2.20;;
67768;SDS011;54569;52.018;5.584;2023-12-28T00:12:56;2.88;;;2.33;;
67768;SDS011;54569;52.018;5.584;2023-12-28T00:15:22;2.88;;;2.30;;
67768;SDS011;54569;52.018;5.584;2023-12-28T00:17:48;3.20;;;2.50;;
67768;SDS011;54569;52.018;5.584;2023-12-28T00:20:13;2.75;;;2.42;;
67768;SDS011;54569;52.018;5.584;2023-12-28T00:22:39;3.90;;;2.38;;
67768;SDS011;54569;52.018;5.584;2023-12-28T00:25:05;3.88;;;3.28;;
67768;SDS011;54569;52.018;5.584;2023-12-28T00:27:31;5.03;;;2.50;;
67768;SDS011;54569;52.018;5.584;2023-12-28T00:29:59;4.13;;;2.15;;
67768;SDS011;54569;52.018;5.584;2023-12-28T00:32:29;3.50;;;2.45;;
67768;SDS011;54569;52.018;5.584;2023-12-28T00:34:55;2.80;;;2.25;;
67768;SDS011;54569;52.018;5.584;2023-12-28T00:37:21;2.95;;;2.70;;
67768;SDS011;54569;52.018;5.584;2023-12-28T00:39:46;4.32;;;2.38;;
67768;SDS011;54569;52.018;5.584;2023-12-28T00:42:15;3.15;;;2.63;;
67768;SDS011;54569;52.018;5.584;2023-12-28T00:44:44;3.42;;;2.60;;
67768;SDS011;54569;52.018;5.584;2023-12-28T00:47:09;4.18;;;2.38;;
67768;SDS011;54569;52.018;5.584;2023-12-28T00:49:36;3.83;;;2.33;;
67768;SDS011;54569;52.018;5.584;2023-12-28T00:52:01;2.97;;;2.38;;
67768;SDS011;54569;52.018;5.584;2023-12-28T00:54:29;5.47;;;2.50;;
67768;SDS011;54569;52.018;5.584;2023-12-28T00:56:55;2.67;;;2.47;;
67768;SDS011;54569;52.018;5.584;2023-12-28T00:59:20;3.58;;;2.55;;
67768;SDS011;54569;52.018;5.584;2023-12-28T01:01:46;4.80;;;2.20;;
67768;SDS011;54569;52.018;5.584;2023-12-28T01:04:12;3.22;;;2.17;;
67768;SDS011;54569;52.018;5.584;2023-12-28T01:06:38;4.80;;;2.15;;
67768;SDS011;54569;52.018;5.584;2023-12-28T01:09:03;4.53;;;2.70;;
67768;SDS011;54569;52.018;5.584;2023-12-28T01:11:32;2.50;;;1.80;;
67768;SDS011;54569;52.018;5.584;2023-12-28T01:13:57;8.13;;;2.40;;
67768;SDS011;54569;52.018;5.584;2023-12-28T01:16:24;4.38;;;2.63;;
67768;SDS011;54569;52.018;5.584;2023-12-28T01:18:50;4.30;;;2.83;;
67768;SDS011;54569;52.018;5.584;2023-12-28T01:21:15;3.72;;;2.33;;
67768;SDS011;54569;52.018;5.584;2023-12-28T01:23:42;4.20;;;2.53;;
67768;SDS011;54569;52.018;5.584;2023-12-28T01:26:14;2.40;;;2.20;;
67768;SDS011;54569;52.018;5.584;2023-12-28T01:28:40;5.43;;;2.70;;
67768;SDS011;54569;52.018;5.584;2023-12-28T01:31:06;4.57;;;2.50;;
67768;SDS011;54569;52.018;5.584;2023-12-28T01:33:32;3.40;;;2.40;;
67768;SDS011;54569;52.018;5.584;2023-12-28T01:35:58;6.22;;;2.70;;
67768;SDS011;54569;52.018;5.584;2023-12-28T01:38:23;6.00;;;2.90;;
67768;SDS011;54569;52.018;5.584;2023-12-28T01:40:49;2.45;;;2.25;;
67768;SDS011;54569;52.018;5.584;2023-12-28T01:43:15;4.47;;;2.20;;
67768;SDS011;54569;52.018;5.584;2023-12-28T01:45:41;4.05;;;2.38;;
67768;SDS011;54569;52.018;5.584;2023-12-28T01:48:06;3.28;;;2.45;;
67768;SDS011;54569;52.018;5.584;2023-12-28T01:50:33;3.78;;;2.22;;
67768;SDS011;54569;52.018;5.584;2023-12-28T01:53:00;3.40;;;2.65;;
67768;SDS011;54569;52.018;5.584;2023-12-28T01:55:27;4.82;;;2.35;;
67768;SDS011;54569;52.018;5.584;2023-12-28T01:57:55;4.28;;;2.30;;
67768;SDS011;54569;52.018;5.584;2023-12-28T02:00:22;3.55;;;2.15;;
67768;SDS011;54569;52.018;5.584;2023-12-28T02:02:51;3.60;;;2.13;;
67768;SDS011;54569;52.018;5.584;2023-12-28T02:05:17;2.88;;;2.05;;
67768;SDS011;54569;52.018;5.584;2023-12-28T02:07:44;3.88;;;2.70;;
67768;SDS011;54569;52.018;5.584;2023-12-28T02:10:10;2.28;;;2.08;;
67768;SDS011;54569;52.018;5.584;2023-12-28T02:12:36;3.33;;;2.55;;
67768;SDS011;54569;52.018;5.584;2023-12-28T02:15:01;3.53;;;2.17;;
67768;SDS011;54569;52.018;5.584;2023-12-28T02:17:44;4.15;;;2.00;;
67768;SDS011;54569;52.018;5.584;2023-12-28T02:20:15;6.07;;;2.22;;
67768;SDS011;54569;52.018;5.584;2023-12-28T02:22:45;4.18;;;2.28;;
67768;SDS011;54569;52.018;5.584;2023-12-28T02:25:12;3.20;;;2.40;;
67768;SDS011;54569;52.018;5.584;2023-12-28T02:27:40;4.97;;;2.30;;
67768;SDS011;54569;52.018;5.584;2023-12-28T02:30:15;2.97;;;2.10;;
67768;SDS011;54569;52.018;5.584;2023-12-28T02:32:54;2.97;;;2.17;;
67768;SDS011;54569;52.018;5.584;2023-12-28T02:35:23;2.75;;;1.95;;
67768;SDS011;54569;52.018;5.584;2023-12-28T02:37:55;3.83;;;2.40;;
67768;SDS011;54569;52.018;5.584;2023-12-28T02:40:24;3.75;;;1.90;;
67768;SDS011;54569;52.018;5.584;2023-12-28T02:42:51;5.43;;;2.20;;
67768;SDS011;54569;52.018;5.584;2023-12-28T02:45:17;3.15;;;1.85;;
67768;SDS011;54569;52.018;5.584;2023-12-28T02:47:44;2.28;;;1.95;;
67768;SDS011;54569;52.018;5.584;2023-12-28T02:50:09;6.18;;;2.22;;
67768;SDS011;54569;52.018;5.584;2023-12-28T02:52:35;4.00;;;1.90;;
67768;SDS011;54569;52.018;5.584;2023-12-28T02:55:01;4.18;;;2.70;;
67768;SDS011;54569;52.018;5.584;2023-12-28T02:57:27;5.05;;;1.95;;
67768;SDS011;54569;52.018;5.584;2023-12-28T02:59:53;3.13;;;1.90;;
67768;SDS011;54569;52.018;5.584;2023-12-28T03:02:19;2.90;;;1.77;;
67768;SDS011;54569;52.018;5.584;2023-12-28T03:04:45;3.35;;;1.85;;
67768;SDS011;54569;52.018;5.584;2023-12-28T03:07:12;3.72;;;1.77;;
67768;SDS011;54569;52.018;5.584;2023-12-28T03:09:38;3.88;;;1.85;;
67768;SDS011;54569;52.018;5.584;2023-12-28T03:12:04;3.70;;;1.80;;
67768;SDS011;54569;52.018;5.584;2023-12-28T03:14:31;4.38;;;1.98;;
67768;SDS011;54569;52.018;5.584;2023-12-28T03:16:57;3.78;;;2.10;;
67768;SDS011;54569;52.018;5.584;2023-12-28T03:19:23;3.80;;;1.67;;
67768;SDS011;54569;52.018;5.584;2023-12-28T03:21:48;3.28;;;2.10;;
67768;SDS011;54569;52.018;5.584;2023-12-28T03:24:14;4.38;;;1.60;;
67768;SDS011;54569;52.018;5.584;2023-12-28T03:26:40;4.47;;;1.90;;
67768;SDS011;54569;52.018;5.584;2023-12-28T03:29:06;3.88;;;1.90;;
67768;SDS011;54569;52.018;5.584;2023-12-28T03:31:33;2.40;;;1.73;;
67768;SDS011;54569;52.018;5.584;2023-12-28T03:33:59;7.15;;;1.80;;
67768;SDS011;54569;52.018;5.584;2023-12-28T03:36:25;4.00;;;1.77;;
67768;SDS011;54569;52.018;5.584;2023-12-28T03:38:51;3.33;;;1.80;;
67768;SDS011;54569;52.018;5.584;2023-12-28T03:41:21;5.00;;;2.00;;
67768;SDS011;54569;52.018;5.584;2023-12-28T03:43:46;4.13;;;1.73;;
67768;SDS011;54569;52.018;5.584;2023-12-28T03:46:13;4.45;;;1.80;;
67768;SDS011;54569;52.018;5.584;2023-12-28T03:48:39;3.10;;;1.65;;
67768;SDS011;54569;52.018;5.584;2023-12-28T03:51:05;3.45;;;1.40;;
67768;SDS011;54569;52.018;5.584;2023-12-28T03:53:31;3.85;;;1.70;;
67768;SDS011;54569;52.018;5.584;2023-12-28T03:56:00;3.28;;;1.67;;
67768;SDS011;54569;52.018;5.584;2023-12-28T03:58:26;7.82;;;2.33;;
67768;SDS011;54569;52.018;5.584;2023-12-28T04:00:52;3.78;;;1.50;;
67768;SDS011;54569;52.018;5.584;2023-12-28T04:03:18;5.43;;;1.90;;
67768;SDS011;54569;52.018;5.584;2023-12-28T04:05:44;8.25;;;2.50;;
67768;SDS011;54569;52.018;5.584;2023-12-28T04:08:10;6.40;;;2.22;;
67768;SDS011;54569;52.018;5.584;2023-12-28T04:10:35;4.38;;;1.98;;
67768;SDS011;54569;52.018;5.584;2023-12-28T04:13:04;4.70;;;1.92;;
67768;SDS011;54569;52.018;5.584;2023-12-28T04:15:30;5.22;;;2.45;;
67768;SDS011;54569;52.018;5.584;2023-12-28T04:17:56;5.38;;;1.55;;
67768;SDS011;54569;52.018;5.584;2023-12-28T04:20:22;5.80;;;1.70;;
67768;SDS011;54569;52.018;5.584;2023-12-28T04:22:49;4.53;;;1.85;;
67768;SDS011;54569;52.018;5.584;2023-12-28T04:25:15;5.43;;;1.90;;
67768;SDS011;54569;52.018;5.584;2023-12-28T04:27:41;6.95;;;1.90;;
67768;SDS011;54569;52.018;5.584;2023-12-28T04:30:07;7.78;;;1.92;;
67768;SDS011;54569;52.018;5.584;2023-12-28T04:32:37;5.45;;;1.60;;
67768;SDS011;54569;52.018;5.584;2023-12-28T04:35:03;3.63;;;1.75;;
67768;SDS011;54569;52.018;5.584;2023-12-28T04:37:29;6.70;;;1.60;;
67768;SDS011;54569;52.018;5.584;2023-12-28T04:39:56;4.07;;;1.83;;
67768;SDS011;54569;52.018;5.584;2023-12-28T04:42:22;7.50;;;1.90;;
67768;SDS011;54569;52.018;5.584;2023-12-28T04:44:48;6.57;;;2.13;;
67768;SDS011;54569;52.018;5.584;2023-12-28T04:47:13;7.57;;;2.10;;
67768;SDS011;54569;52.018;5.584;2023-12-28T04:49:39;7.18;;;2.03;;
67768;SDS011;54569;52.018;5.584;2023-12-28T04:52:05;5.43;;;1.80;;
67768;SDS011;54569;52.018;5.584;2023-12-28T04:54:31;7.10;;;2.30;;
67768;SDS011;54569;52.018;5.584;2023-12-28T04:56:58;6.15;;;1.88;;
67768;SDS011;54569;52.018;5.584;2023-12-28T04:59:24;5.80;;;1.95;;
67768;SDS011;54569;52.018;5.584;2023-12-28T05:01:50;9.10;;;2.15;;
67768;SDS011;54569;52.018;5.584;2023-12-28T05:04:16;5.57;;;1.85;;
67768;SDS011;54569;52.018;5.584;2023-12-28T05:06:42;8.55;;;1.58;;
67768;SDS011;54569;52.018;5.584;2023-12-28T05:09:08;8.73;;;1.98;;
67768;SDS011;54569;52.018;5.584;2023-12-28T05:11:34;9.25;;;2.03;;
67768;SDS011;54569;52.018;5.584;2023-12-28T05:13:59;9.32;;;2.35;;
67768;SDS011;54569;52.018;5.584;2023-12-28T05:16:25;7.93;;;1.60;;
67768;SDS011;54569;52.018;5.584;2023-12-28T05:18:51;9.57;;;2.05;;
67768;SDS011;54569;52.018;5.584;2023-12-28T05:21:17;6.07;;;1.80;;
67768;SDS011;54569;52.018;5.584;2023-12-28T05:23:42;6.38;;;2.15;;
67768;SDS011;54569;52.018;5.584;2023-12-28T05:26:08;7.47;;;2.03;;
67768;SDS011;54569;52.018;5.584;2023-12-28T05:28:34;6.60;;;1.88;;
67768;SDS011;54569;52.018;5.584;2023-12-28T05:30:59;8.02;;;2.05;;
67768;SDS011;54569;52.018;5.584;2023-12-28T05:33:25;7.97;;;1.90;;
67768;SDS011;54569;52.018;5.584;2023-12-28T05:35:51;11.40;;;2.05;;
67768;SDS011;54569;52.018;5.584;2023-12-28T05:38:17;9.95;;;1.88;;
67768;SDS011;54569;52.018;5.584;2023-12-28T05:40:43;13.68;;;2.40;;
67768;SDS011;54569;52.018;5.584;2023-12-28T05:43:10;7.97;;;1.80;;
67768;SDS011;54569;52.018;5.584;2023-12-28T05:45:36;8.65;;;2.15;;
67768;SDS011;54569;52.018;5.584;2023-12-28T05:48:02;7.78;;;1.73;;
67768;SDS011;54569;52.018;5.584;2023-12-28T05:50:28;6.15;;;1.80;;
67768;SDS011;54569;52.018;5.584;2023-12-28T05:52:53;7.47;;;2.33;;
67768;SDS011;54569;52.018;5.584;2023-12-28T05:55:20;6.68;;;1.92;;
67768;SDS011;54569;52.018;5.584;2023-12-28T05:57:46;10.43;;;2.28;;
67768;SDS011;54569;52.018;5.584;2023-12-28T06:00:12;6.15;;;2.10;;
67768;SDS011;54569;52.018;5.584;2023-12-28T06:02:40;8.63;;;2.35;;
67768;SDS011;54569;52.018;5.584;2023-12-28T06:05:06;10.95;;;1.88;;
67768;SDS011;54569;52.018;5.584;2023-12-28T06:07:32;9.10;;;1.85;;
67768;SDS011;54569;52.018;5.584;2023-12-28T06:09:58;10.98;;;2.20;;
67768;SDS011;54569;52.018;5.584;2023-12-28T06:12:24;10.98;;;1.90;;
67768;SDS011;54569;52.018;5.584;2023-12-28T06:14:50;5.07;;;1.55;;
67768;SDS011;54569;52.018;5.584;2023-12-28T06:17:16;7.43;;;1.88;;
67768;SDS011;54569;52.018;5.584;2023-12-28T06:19:43;8.30;;;1.92;;
67768;SDS011;54569;52.018;5.584;2023-12-28T06:22:09;6.60;;;1.80;;
67768;SDS011;54569;52.018;5.584;2023-12-28T06:24:38;7.97;;;2.15;;
67768;SDS011;54569;52.018;5.584;2023-12-28T06:27:05;7.40;;;1.77;;
67768;SDS011;54569;52.018;5.584;2023-12-28T06:29:31;13.98;;;2.40;;
67768;SDS011;54569;52.018;5.584;2023-12-28T06:31:56;9.05;;;1.92;;
67768;SDS011;54569;52.018;5.584;2023-12-28T06:34:22;10.88;;;2.13;;
67768;SDS011;54569;52.018;5.584;2023-12-28T06:36:48;11.00;;;2.30;;
67768;SDS011;54569;52.018;5.584;2023-12-28T06:39:14;10.05;;;2.60;;
67768;SDS011;54569;52.018;5.584;2023-12-28T06:41:39;11.68;;;3.00;;
67768;SDS011;54569;52.018;5.584;2023-12-28T06:44:05;9.35;;;2.10;;
67768;SDS011;54569;52.018;5.584;2023-12-28T06:46:31;6.80;;;2.40;;
67768;SDS011;54569;52.018;5.584;2023-12-28T06:48:57;14.48;;;2.13;;
67768;SDS011;54569;52.018;5.584;2023-12-28T06:51:24;7.03;;;2.30;;
67768;SDS011;54569;52.018;5.584;2023-12-28T06:53:50;11.45;;;1.77;;
67768;SDS011;54569;52.018;5.584;2023-12-28T06:56:16;11.90;;;2.47;;
67768;SDS011;54569;52.018;5.584;2023-12-28T06:58:42;10.93;;;2.35;;
67768;SDS011;54569;52.018;5.584;2023-12-28T07:01:08;10.30;;;2.25;;
67768;SDS011;54569;52.018;5.584;2023-12-28T07:03:34;10.20;;;2.65;;
67768;SDS011;54569;52.018;5.584;2023-12-28T07:05:59;7.68;;;2.17;;
67768;SDS011;54569;52.018;5.584;2023-12-28T07:08:25;10.20;;;2.60;;
67768;SDS011;54569;52.018;5.584;2023-12-28T07:10:51;10.55;;;2.20;;
67768;SDS011;54569;52.018;5.584;2023-12-28T07:13:17;12.43;;;2.30;;
67768;SDS011;54569;52.018;5.584;2023-12-28T07:15:43;9.38;;;2.22;;
67768;SDS011;54569;52.018;5.584;2023-12-28T07:18:09;12.40;;;2.20;;
67768;SDS011;54569;52.018;5.584;2023-12-28T07:20:35;9.90;;;1.90;;
67768;SDS011;54569;52.018;5.584;2023-12-28T07:23:00;6.68;;;1.88;;
67768;SDS011;54569;52.018;5.584;2023-12-28T07:25:26;10.88;;;2.10;;
67768;SDS011;54569;52.018;5.584;2023-12-28T07:27:52;8.68;;;2.28;;
67768;SDS011;54569;52.018;5.584;2023-12-28T07:30:18;15.18;;;2.88;;
67768;SDS011;54569;52.018;5.584;2023-12-28T07:32:44;10.20;;;2.53;;
67768;SDS011;54569;52.018;5.584;2023-12-28T07:35:10;8.88;;;2.15;;
67768;SDS011;54569;52.018;5.584;2023-12-28T07:37:36;10.27;;;2.47;;
67768;SDS011;54569;52.018;5.584;2023-12-28T07:40:03;7.38;;;1.92;;
67768;SDS011;54569;52.018;5.584;2023-12-28T07:42:29;8.43;;;2.13;;
67768;SDS011;54569;52.018;5.584;2023-12-28T07:44:55;15.00;;;2.20;;
67768;SDS011;54569;52.018;5.584;2023-12-28T07:47:21;13.30;;;1.95;;
67768;SDS011;54569;52.018;5.584;2023-12-28T07:49:47;10.13;;;2.10;;
67768;SDS011;54569;52.018;5.584;2023-12-28T07:52:12;8.45;;;1.98;;
67768;SDS011;54569;52.018;5.584;2023-12-28T07:54:38;8.38;;;2.20;;
67768;SDS011;54569;52.018;5.584;2023-12-28T07:57:04;6.97;;;1.90;;
67768;SDS011;54569;52.018;5.584;2023-12-28T07:59:32;9.18;;;2.45;;
67768;SDS011;54569;52.018;5.584;2023-12-28T08:01:58;10.57;;;2.85;;
67768;SDS011;54569;52.018;5.584;2023-12-28T08:04:24;9.73;;;2.10;;
67768;SDS011;54569;52.018;5.584;2023-12-28T08:06:50;13.48;;;2.33;;
67768;SDS011;54569;52.018;5.584;2023-12-28T08:09:15;12.10;;;2.90;;
67768;SDS011;54569;52.018;5.584;2023-12-28T08:11:41;10.48;;;2.28;;
67768;SDS011;54569;52.018;5.584;2023-12-28T08:14:07;12.80;;;3.20;;
67768;SDS011;54569;52.018;5.584;2023-12-28T08:16:33;14.02;;;2.20;;
67768;SDS011;54569;52.018;5.584;2023-12-28T08:19:00;13.20;;;2.75;;
67768;SDS011;54569;52.018;5.584;2023-12-28T08:21:26;11.80;;;2.38;;
67768;SDS011;54569;52.018;5.584;2023-12-28T08:23:52;10.05;;;2.13;;
67768;SDS011;54569;52.018;5.584;2023-12-28T08:26:18;11.40;;;2.15;;
67768;SDS011;54569;52.018;5.584;2023-12-28T08:28:44;12.05;;;2.25;;
67768;SDS011;54569;52.018;5.584;2023-12-28T08:31:10;10.13;;;2.28;;
67768;SDS011;54569;52.018;5.584;2023-12-28T08:33:37;12.45;;;2.25;;
67768;SDS011;54569;52.018;5.584;2023-12-28T08:36:09;8.35;;;2.00;;
67768;SDS011;54569;52.018;5.584;2023-12-28T08:38:36;12.02;;;2.05;;
67768;SDS011;54569;52.018;5.584;2023-12-28T08:41:02;9.10;;;1.88;;
67768;SDS011;54569;52.018;5.584;2023-12-28T08:43:33;17.05;;;2.80;;
67768;SDS011;54569;52.018;5.584;2023-12-28T08:45:59;6.70;;;1.90;;
67768;SDS011;54569;52.018;5.584;2023-12-28T08:48:25;11.70;;;2.22;;
67768;SDS011;54569;52.018;5.584;2023-12-28T08:50:51;14.02;;;2.67;;
67768;SDS011;54569;52.018;5.584;2023-12-28T08:53:17;14.48;;;2.55;;
67768;SDS011;54569;52.018;5.584;2023-12-28T08:55:42;11.98;;;2.40;;
67768;SDS011;54569;52.018;5.584;2023-12-28T08:58:08;12.68;;;2.80;;
67768;SDS011;54569;52.018;5.584;2023-12-28T09:00:34;12.77;;;2.05;;
67768;SDS011;54569;52.018;5.584;2023-12-28T09:03:00;10.40;;;1.95;;
67768;SDS011;54569;52.018;5.584;2023-12-28T09:05:25;9.43;;;2.20;;
67768;SDS011;54569;52.018;5.584;2023-12-28T09:07:51;16.17;;;2.40;;
67768;SDS011;54569;52.018;5.584;2023-12-28T09:10:17;11.68;;;2.40;;
67768;SDS011;54569;52.018;5.584;2023-12-28T09:12:42;11.45;;;2.75;;
67768;SDS011;54569;52.018;5.584;2023-12-28T09:15:08;9.65;;;1.92;;
67768;SDS011;54569;52.018;5.584;2023-12-28T09:17:34;12.07;;;2.35;;
67768;SDS011;54569;52.018;5.584;2023-12-28T09:20:00;14.80;;;2.30;;
67768;SDS011;54569;52.018;5.584;2023-12-28T09:22:29;20.73;;;2.67;;
67768;SDS011;54569;52.018;5.584;2023-12-28T09:24:55;8.98;;;2.35;;
67768;SDS011;54569;52.018;5.584;2023-12-28T09:27:21;13.30;;;2.35;;
67768;SDS011;54569;52.018;5.584;2023-12-28T09:29:46;15.52;;;2.78;;
67768;SDS011;54569;52.018;5.584;2023-12-28T09:32:12;11.07;;;1.95;;
67768;SDS011;54569;52.018;5.584;2023-12-28T09:34:38;16.30;;;3.10;;
67768;SDS011;54569;52.018;5.584;2023-12-28T09:37:05;12.55;;;2.63;;
67768;SDS011;54569;52.018;5.584;2023-12-28T09:39:31;14.55;;;2.22;;
67768;SDS011;54569;52.018;5.584;2023-12-28T09:42:00;12.70;;;2.47;;
67768;SDS011;54569;52.018;5.584;2023-12-28T09:44:34;14.73;;;2.80;;
67768;SDS011;54569;52.018;5.584;2023-12-28T09:47:03;15.93;;;3.60;;
67768;SDS011;54569;52.018;5.584;2023-12-28T09:49:31;6.05;;;1.85;;
67768;SDS011;54569;52.018;5.584;2023-12-28T09:51:58;8.10;;;1.80;;
67768;SDS011;54569;52.018;5.584;2023-12-28T09:54:25;11.55;;;2.20;;
67768;SDS011;54569;52.018;5.584;2023-12-28T09:56:50;10.10;;;2.40;;
67768;SDS011;54569;52.018;5.584;2023-12-28T09:59:17;11.18;;;2.45;;
67768;SDS011;54569;52.018;5.584;2023-12-28T10:01:45;8.93;;;2.13;;
67768;SDS011;54569;52.018;5.584;2023-12-28T10:04:13;10.93;;;1.92;;
67768;SDS011;54569;52.018;5.584;2023-12-28T10:06:40;11.32;;;2.22;;
67768;SDS011;54569;52.018;5.584;2023-12-28T10:09:05;15.23;;;3.35;;
67768;SDS011;54569;52.018;5.584;2023-12-28T10:11:32;10.13;;;2.55;;
67768;SDS011;54569;52.018;5.584;2023-12-28T10:13:59;9.30;;;2.00;;
67768;SDS011;54569;52.018;5.584;2023-12-28T10:16:25;12.50;;;2.58;;
67768;SDS011;54569;52.018;5.584;2023-12-28T10:18:51;12.77;;;2.35;;
67768;SDS011;54569;52.018;5.584;2023-12-28T10:21:17;12.10;;;2.63;;
67768;SDS011;54569;52.018;5.584;2023-12-28T10:23:43;10.10;;;2.33;;
67768;SDS011;54569;52.018;5.584;2023-12-28T10:26:08;8.60;;;2.72;;
67768;SDS011;54569;52.018;5.584;2023-12-28T10:28:35;11.43;;;2.20;;
67768;SDS011;54569;52.018;5.584;2023-12-28T10:31:05;14.48;;;2.65;;
67768;SDS011;54569;52.018;5.584;2023-12-28T10:33:34;8.98;;;2.03;;
67768;SDS011;54569;52.018;5.584;2023-12-28T10:36:01;13.52;;;2.35;;
67768;SDS011;54569;52.018;5.584;2023-12-28T10:38:35;13.23;;;2.22;;
67768;SDS011;54569;52.018;5.584;2023-12-28T10:41:11;10.90;;;2.47;;
67768;SDS011;54569;52.018;5.584;2023-12-28T10:46:25;16.10;;;3.40;;
67768;SDS011;54569;52.018;5.584;2023-12-28T10:48:53;12.93;;;2.28;;
67768;SDS011;54569;52.018;5.584;2023-12-28T10:51:25;10.70;;;2.28;;
67768;SDS011;54569;52.018;5.584;2023-12-28T10:53:59;9.80;;;2.17;;
67768;SDS011;54569;52.018;5.584;2023-12-28T10:56:33;13.57;;;2.28;;
67768;SDS011;54569;52.018;5.584;2023-12-28T11:01:54;14.27;;;2.58;;
67768;SDS011;54569;52.018;5.584;2023-12-28T11:07:09;10.18;;;2.08;;
67768;SDS011;54569;52.018;5.584;2023-12-28T11:09:37;13.77;;;2.47;;
67768;SDS011;54569;52.018;5.584;2023-12-28T11:12:07;13.73;;;2.58;;
67768;SDS011;54569;52.018;5.584;2023-12-28T11:14:35;11.23;;;2.03;;
67768;SDS011;54569;52.018;5.584;2023-12-28T11:17:04;14.70;;;2.65;;
67768;SDS011;54569;52.018;5.584;2023-12-28T11:19:30;11.30;;;1.92;;
67768;SDS011;54569;52.018;5.584;2023-12-28T11:21:57;12.18;;;2.40;;
67768;SDS011;54569;52.018;5.584;2023-12-28T11:24:26;13.35;;;2.60;;
67768;SDS011;54569;52.018;5.584;2023-12-28T11:26:53;12.57;;;2.60;;
67768;SDS011;54569;52.018;5.584;2023-12-28T11:29:24;13.25;;;2.30;;
67768;SDS011;54569;52.018;5.584;2023-12-28T11:31:50;17.80;;;3.20;;
67768;SDS011;54569;52.018;5.584;2023-12-28T11:34:17;13.45;;;2.55;;
67768;SDS011;54569;52.018;5.584;2023-12-28T11:36:49;12.80;;;2.25;;
67768;SDS011;54569;52.018;5.584;2023-12-28T11:39:24;17.25;;;3.03;;
67768;SDS011;54569;52.018;5.584;2023-12-28T11:41:52;9.45;;;2.42;;
67768;SDS011;54569;52.018;5.584;2023-12-28T11:44:26;13.48;;;2.53;;
67768;SDS011;54569;52.018;5.584;2023-12-28T11:46:52;10.30;;;2.42;;
67768;SDS011;54569;52.018;5.584;2023-12-28T11:49:24;13.38;;;2.55;;
67768;SDS011;54569;52.018;5.584;2023-12-28T11:51:54;19.38;;;3.17;;
67768;SDS011;54569;52.018;5.584;2023-12-28T11:54:25;14.88;;;2.97;;
67768;SDS011;54569;52.018;5.584;2023-12-28T11:56:51;17.65;;;2.80;;
67768;SDS011;54569;52.018;5.584;2023-12-28T11:59:18;12.70;;;2.67;;
67768;SDS011;54569;52.018;5.584;2023-12-28T12:01:51;11.75;;;2.90;;
67768;SDS011;54569;52.018;5.584;2023-12-28T12:04:18;12.75;;;2.58;;
67768;SDS011;54569;52.018;5.584;2023-12-28T12:06:47;17.70;;;2.88;;
67768;SDS011;54569;52.018;5.584;2023-12-28T12:09:23;16.80;;;2.42;;
67768;SDS011;54569;52.018;5.584;2023-12-28T12:11:51;15.05;;;2.35;;
67768;SDS011;54569;52.018;5.584;2023-12-28T12:14:17;9.00;;;2.40;;
67768;SDS011;54569;52.018;5.584;2023-12-28T12:16:43;13.32;;;2.63;;
67768;SDS011;54569;52.018;5.584;2023-12-28T12:19:10;14.30;;;2.88;;
67768;SDS011;54569;52.018;5.584;2023-12-28T12:21:36;17.35;;;2.85;;
67768;SDS011;54569;52.018;5.584;2023-12-28T12:24:02;6.20;;;2.08;;
67768;SDS011;54569;52.018;5.584;2023-12-28T12:26:29;10.05;;;2.28;;
67768;SDS011;54569;52.018;5.584;2023-12-28T12:28:58;17.45;;;3.20;;
67768;SDS011;54569;52.018;5.584;2023-12-28T12:31:27;18.92;;;2.88;;
67768;SDS011;54569;52.018;5.584;2023-12-28T12:33:53;13.32;;;2.70;;
67768;SDS011;54569;52.018;5.584;2023-12-28T12:36:20;12.63;;;3.05;;
67768;SDS011;54569;52.018;5.584;2023-12-28T12:38:47;18.00;;;2.17;;
67768;SDS011;54569;52.018;5.584;2023-12-28T12:41:13;11.13;;;2.42;;
67768;SDS011;54569;52.018;5.584;2023-12-28T12:43:39;11.45;;;2.53;;
67768;SDS011;54569;52.018;5.584;2023-12-28T12:46:06;8.32;;;2.78;;
67768;SDS011;54569;52.018;5.584;2023-12-28T12:48:32;11.18;;;2.10;;
67768;SDS011;54569;52.018;5.584;2023-12-28T12:50:58;15.82;;;2.80;;
67768;SDS011;54569;52.018;5.584;2023-12-28T12:53:33;19.95;;;3.03;;
67768;SDS011;54569;52.018;5.584;2023-12-28T12:56:00;15.00;;;2.63;;
67768;SDS011;54569;52.018;5.584;2023-12-28T12:58:26;14.73;;;2.45;;
67768;SDS011;54569;52.018;5.584;2023-12-28T13:00:52;14.80;;;2.25;;
67768;SDS011;54569;52.018;5.584;2023-12-28T13:03:19;13.32;;;2.83;;
67768;SDS011;54569;52.018;5.584;2023-12-28T13:05:45;13.30;;;2.60;;
67768;SDS011;54569;52.018;5.584;2023-12-28T13:08:11;15.27;;;2.85;;
67768;SDS011;54569;52.018;5.584;2023-12-28T13:10:37;10.43;;;2.63;;
67768;SDS011;54569;52.018;5.584;2023-12-28T13:13:06;13.82;;;3.35;;
67768;SDS011;54569;52.018;5.584;2023-12-28T13:15:32;10.80;;;2.10;;
67768;SDS011;54569;52.018;5.584;2023-12-28T13:17:57;17.33;;;2.97;;
67768;SDS011;54569;52.018;5.584;2023-12-28T13:20:25;13.52;;;2.05;;
67768;SDS011;54569;52.018;5.584;2023-12-28T13:22:51;11.73;;;2.38;;
67768;SDS011;54569;52.018;5.584;2023-12-28T13:25:17;9.85;;;2.45;;
67768;SDS011;54569;52.018;5.584;2023-12-28T13:27:43;11.88;;;2.42;;
67768;SDS011;54569;52.018;5.584;2023-12-28T13:30:09;7.88;;;1.85;;
67768;SDS011;54569;52.018;5.584;2023-12-28T13:32:37;15.88;;;2.80;;
67768;SDS011;54569;52.018;5.584;2023-12-28T13:35:03;13.35;;;2.20;;
67768;SDS011;54569;52.018;5.584;2023-12-28T13:37:29;15.45;;;2.20;;
67768;SDS011;54569;52.018;5.584;2023-12-28T13:39:55;13.27;;;2.72;;
67768;SDS011;54569;52.018;5.584;2023-12-28T13:42:21;13.05;;;2.42;;
67768;SDS011;54569;52.018;5.584;2023-12-28T13:44:46;10.32;;;2.75;;
67768;SDS011;54569;52.018;5.584;2023-12-28T13:47:12;15.50;;;2.85;;
67768;SDS011;54569;52.018;5.584;2023-12-28T13:49:38;10.40;;;2.67;;
67768;SDS011;54569;52.018;5.584;2023-12-28T13:52:04;13.88;;;2.53;;
67768;SDS011;54569;52.018;5.584;2023-12-28T13:54:29;14.65;;;2.40;;
67768;SDS011;54569;52.018;5.584;2023-12-28T13:56:55;11.88;;;2.22;;
67768;SDS011;54569;52.018;5.584;2023-12-28T13:59:22;12.77;;;2.25;;
67768;SDS011;54569;52.018;5.584;2023-12-28T14:01:48;16.08;;;2.45;;
67768;SDS011;54569;52.018;5.584;2023-12-28T14:04:14;10.25;;;2.47;;
67768;SDS011;54569;52.018;5.584;2023-12-28T14:06:40;11.55;;;2.35;;
67768;SDS011;54569;52.018;5.584;2023-12-28T14:09:06;14.80;;;2.80;;
67768;SDS011;54569;52.018;5.584;2023-12-28T14:11:31;15.48;;;2.70;;
67768;SDS011;54569;52.018;5.584;2023-12-28T14:13:57;12.82;;;2.63;;
67768;SDS011;54569;52.018;5.584;2023-12-28T14:16:23;15.23;;;2.55;;
67768;SDS011;54569;52.018;5.584;2023-12-28T14:18:48;13.93;;;2.45;;
67768;SDS011;54569;52.018;5.584;2023-12-28T14:21:15;14.77;;;3.10;;
67768;SDS011;54569;52.018;5.584;2023-12-28T14:23:41;12.63;;;3.15;;
67768;SDS011;54569;52.018;5.584;2023-12-28T14:26:13;12.93;;;2.50;;
67768;SDS011;54569;52.018;5.584;2023-12-28T14:28:41;13.90;;;2.83;;
67768;SDS011;54569;52.018;5.584;2023-12-28T14:31:08;14.02;;;2.65;;
67768;SDS011;54569;52.018;5.584;2023-12-28T14:33:34;13.60;;;3.08;;
67768;SDS011;54569;52.018;5.584;2023-12-28T14:36:01;10.52;;;2.70;;
67768;SDS011;54569;52.018;5.584;2023-12-28T14:38:27;16.42;;;2.78;;
67768;SDS011;54569;52.018;5.584;2023-12-28T14:40:53;14.88;;;2.75;;
67768;SDS011;54569;52.018;5.584;2023-12-28T14:43:20;12.40;;;2.90;;
67768;SDS011;54569;52.018;5.584;2023-12-28T14:45:46;8.45;;;2.28;;